sensor_id;sensor_type;location;lat;lon;timestamp;temperature;humidity
45761;DHT22;31471;51.040;14.414;2023-03-01T00:02:16;-5.60;99.90
45761;DHT22;31471;51.040;14.414;2023-03-01T00:04:41;-5.40;99.90
45761;DHT22;31471;51.040;14.414;2023-03-01T00:07:07;-5.50;99.90
45761;DHT22;31471;51.040;14.414;2023-03-01T00:09:32;-5.90;99.90
45761;DHT22;31471;51.040;14.414;2023-03-01T00:11:58;-6.00;99.90
45761;DHT22;31471;51.040;14.414;2023-03-01T00:14:23;-6.10;99.90
45761;DHT22;31471;51.040;14.414;2023-03-01T00:16:49;-6.20;99.90
45761;DHT22;31471;51.040;14.414;2023-03-01T00:19:15;-6.30;99.90
45761;DHT22;31471;51.040;14.414;2023-03-01T00:21:41;-6.30;99.90
45761;DHT22;31471;51.040;14.414;2023-03-01T00:24:07;-5.90;99.90
45761;DHT22;31471;51.040;14.414;2023-03-01T00:26:32;-6.10;99.90
45761;DHT22;31471;51.040;14.414;2023-03-01T00:28:58;-6.00;99.90
45761;DHT22;31471;51.040;14.414;2023-03-01T00:31:28;-5.70;99.90
45761;DHT22;31471;51.040;14.414;2023-03-01T00:33:54;-5.70;99.90
45761;DHT22;31471;51.040;14.414;2023-03-01T00:36:24;-5.60;99.90
45761;DHT22;31471;51.040;14.414;2023-03-01T00:38:50;-5.90;99.90
45761;DHT22;31471;51.040;14.414;2023-03-01T00:41:16;-5.90;99.90
45761;DHT22;31471;51.040;14.414;2023-03-01T00:43:43;-5.80;99.90
45761;DHT22;31471;51.040;14.414;2023-03-01T00:46:09;-6.10;99.90
45761;DHT22;31471;51.040;14.414;2023-03-01T00:48:35;-6.00;99.90
45761;DHT22;31471;51.040;14.414;2023-03-01T00:51:08;-6.10;99.90
45761;DHT22;31471;51.040;14.414;2023-03-01T00:53:34;-6.10;99.90
45761;DHT22;31471;51.040;14.414;2023-03-01T00:56:00;-6.30;99.90
45761;DHT22;31471;51.040;14.414;2023-03-01T00:58:26;-6.10;99.90
45761;DHT22;31471;51.040;14.414;2023-03-01T01:00:51;-6.10;99.90
45761;DHT22;31471;51.040;14.414;2023-03-01T01:03:20;-6.20;99.90
45761;DHT22;31471;51.040;14.414;2023-03-01T01:05:46;-6.30;99.90
45761;DHT22;31471;51.040;14.414;2023-03-01T01:08:11;-6.10;99.90
45761;DHT22;31471;51.040;14.414;2023-03-01T01:10:37;-6.00;99.90
45761;DHT22;31471;51.040;14.414;2023-03-01T01:13:03;-6.40;99.90
45761;DHT22;31471;51.040;14.414;2023-03-01T01:15:28;-6.50;99.90
45761;DHT22;31471;51.040;14.414;2023-03-01T01:17:54;-6.60;99.90
45761;DHT22;31471;51.040;14.414;2023-03-01T01:20:20;-6.70;99.90
45761;DHT22;31471;51.040;14.414;2023-03-01T01:22:46;-6.80;99.90
45761;DHT22;31471;51.040;14.414;2023-03-01T01:25:11;-6.90;99.90
45761;DHT22;31471;51.040;14.414;2023-03-01T01:27:37;-7.00;99.90
45761;DHT22;31471;51.040;14.414;2023-03-01T01:30:03;-7.00;99.90
45761;DHT22;31471;51.040;14.414;2023-03-01T01:32:28;-7.00;99.90
45761;DHT22;31471;51.040;14.414;2023-03-01T01:34:54;-7.00;99.90
45761;DHT22;31471;51.040;14.414;2023-03-01T01:37:19;-6.80;99.90
45761;DHT22;31471;51.040;14.414;2023-03-01T01:39:45;-6.90;99.90
45761;DHT22;31471;51.040;14.414;2023-03-01T01:42:17;-6.80;99.90
45761;DHT22;31471;51.040;14.414;2023-03-01T01:44:45;-6.50;99.90
45761;DHT22;31471;51.040;14.414;2023-03-01T01:47:20;-6.60;99.90
45761;DHT22;31471;51.040;14.414;2023-03-01T01:49:56;-6.50;99.90
45761;DHT22;31471;51.040;14.414;2023-03-01T01:52:23;-6.50;99.90
45761;DHT22;31471;51.040;14.414;2023-03-01T01:54:52;-6.70;99.90
45761;DHT22;31471;51.040;14.414;2023-03-01T01:57:20;-6.80;99.90
45761;DHT22;31471;51.040;14.414;2023-03-01T01:59:48;-6.80;99.90
45761;DHT22;31471;51.040;14.414;2023-03-01T02:02:15;-6.80;99.90
45761;DHT22;31471;51.040;14.414;2023-03-01T02:04:40;-6.80;99.90
45761;DHT22;31471;51.040;14.414;2023-03-01T02:07:08;-6.90;99.90
45761;DHT22;31471;51.040;14.414;2023-03-01T02:09:36;-6.60;99.90
45761;DHT22;31471;51.040;14.414;2023-03-01T02:12:02;-6.80;99.90
45761;DHT22;31471;51.040;14.414;2023-03-01T02:14:27;-6.90;99.90
45761;DHT22;31471;51.040;14.414;2023-03-01T02:16:53;-7.10;99.90
45761;DHT22;31471;51.040;14.414;2023-03-01T02:19:28;-6.90;99.90
45761;DHT22;31471;51.040;14.414;2023-03-01T02:21:59;-7.10;99.90
45761;DHT22;31471;51.040;14.414;2023-03-01T02:26:53;-7.10;99.90
45761;DHT22;31471;51.040;14.414;2023-03-01T02:29:20;-7.30;99.90
45761;DHT22;31471;51.040;14.414;2023-03-01T02:31:46;-7.30;99.90
45761;DHT22;31471;51.040;14.414;2023-03-01T02:34:13;-7.30;99.90
45761;DHT22;31471;51.040;14.414;2023-03-01T02:36:40;-7.00;99.90
45761;DHT22;31471;51.040;14.414;2023-03-01T02:39:06;-7.00;99.90
45761;DHT22;31471;51.040;14.414;2023-03-01T02:41:41;-7.30;99.90
45761;DHT22;31471;51.040;14.414;2023-03-01T02:44:08;-7.30;99.90
45761;DHT22;31471;51.040;14.414;2023-03-01T02:46:41;-7.00;99.90
45761;DHT22;31471;51.040;14.414;2023-03-01T02:49:24;-6.90;99.90
45761;DHT22;31471;51.040;14.414;2023-03-01T02:51:56;-7.30;99.90
45761;DHT22;31471;51.040;14.414;2023-03-01T02:54:28;-7.30;99.90
45761;DHT22;31471;51.040;14.414;2023-03-01T02:56:56;-7.30;99.90
45761;DHT22;31471;51.040;14.414;2023-03-01T02:59:24;-7.40;99.90
45761;DHT22;31471;51.040;14.414;2023-03-01T03:01:50;-7.50;99.90
45761;DHT22;31471;51.040;14.414;2023-03-01T03:04:16;-7.50;99.90
45761;DHT22;31471;51.040;14.414;2023-03-01T03:06:44;-7.20;99.90
45761;DHT22;31471;51.040;14.414;2023-03-01T03:09:10;-7.50;99.90
45761;DHT22;31471;51.040;14.414;2023-03-01T03:11:36;-7.50;99.90
45761;DHT22;31471;51.040;14.414;2023-03-01T03:14:02;-7.50;99.90
45761;DHT22;31471;51.040;14.414;2023-03-01T03:16:27;-7.60;99.90
45761;DHT22;31471;51.040;14.414;2023-03-01T03:18:55;-7.70;99.90
45761;DHT22;31471;51.040;14.414;2023-03-01T03:21:20;-7.70;99.90
45761;DHT22;31471;51.040;14.414;2023-03-01T03:23:45;-7.50;99.90
45761;DHT22;31471;51.040;14.414;2023-03-01T03:26:11;-7.30;99.90
45761;DHT22;31471;51.040;14.414;2023-03-01T03:28:38;-7.30;99.90
45761;DHT22;31471;51.040;14.414;2023-03-01T03:31:05;-7.70;99.90
45761;DHT22;31471;51.040;14.414;2023-03-01T03:33:31;-7.70;99.90
45761;DHT22;31471;51.040;14.414;2023-03-01T03:35:56;-7.40;99.90
45761;DHT22;31471;51.040;14.414;2023-03-01T03:38:21;-7.70;99.90
45761;DHT22;31471;51.040;14.414;2023-03-01T03:40:48;-7.80;99.90
45761;DHT22;31471;51.040;14.414;2023-03-01T03:43:23;-7.70;99.90
45761;DHT22;31471;51.040;14.414;2023-03-01T03:45:49;-7.70;99.90
45761;DHT22;31471;51.040;14.414;2023-03-01T03:48:15;-7.60;99.90
45761;DHT22;31471;51.040;14.414;2023-03-01T03:50:41;-7.60;99.90
45761;DHT22;31471;51.040;14.414;2023-03-01T03:53:07;-7.80;99.90
45761;DHT22;31471;51.040;14.414;2023-03-01T03:55:33;-8.10;99.90
45761;DHT22;31471;51.040;14.414;2023-03-01T03:57:59;-8.20;99.90
45761;DHT22;31471;51.040;14.414;2023-03-01T04:00:32;-8.20;99.90
45761;DHT22;31471;51.040;14.414;2023-03-01T04:02:58;-8.20;99.90
45761;DHT22;31471;51.040;14.414;2023-03-01T04:05:24;-8.20;99.90
45761;DHT22;31471;51.040;14.414;2023-03-01T04:07:49;-8.10;99.90
45761;DHT22;31471;51.040;14.414;2023-03-01T04:10:30;-7.90;99.90
45761;DHT22;31471;51.040;14.414;2023-03-01T04:12:55;-8.00;99.90
45761;DHT22;31471;51.040;14.414;2023-03-01T04:15:21;-8.00;99.90
45761;DHT22;31471;51.040;14.414;2023-03-01T04:17:49;-7.80;99.90
45761;DHT22;31471;51.040;14.414;2023-03-01T04:20:16;-7.70;99.90
45761;DHT22;31471;51.040;14.414;2023-03-01T04:22:43;-7.70;99.90
45761;DHT22;31471;51.040;14.414;2023-03-01T04:25:09;-7.80;99.90
45761;DHT22;31471;51.040;14.414;2023-03-01T04:27:35;-8.10;99.90
45761;DHT22;31471;51.040;14.414;2023-03-01T04:30:01;-8.20;99.90
45761;DHT22;31471;51.040;14.414;2023-03-01T04:32:26;-8.30;99.90
45761;DHT22;31471;51.040;14.414;2023-03-01T04:34:52;-8.40;99.90
45761;DHT22;31471;51.040;14.414;2023-03-01T04:37:17;-8.50;99.90
45761;DHT22;31471;51.040;14.414;2023-03-01T04:39:43;-8.40;99.90
45761;DHT22;31471;51.040;14.414;2023-03-01T04:42:11;-8.20;99.90
45761;DHT22;31471;51.040;14.414;2023-03-01T04:44:36;-8.20;99.90
45761;DHT22;31471;51.040;14.414;2023-03-01T04:47:02;-8.40;99.90
45761;DHT22;31471;51.040;14.414;2023-03-01T04:49:27;-8.50;99.90
45761;DHT22;31471;51.040;14.414;2023-03-01T04:51:52;-8.40;99.90
45761;DHT22;31471;51.040;14.414;2023-03-01T04:54:18;-8.30;99.90
45761;DHT22;31471;51.040;14.414;2023-03-01T04:56:43;-8.30;99.90
45761;DHT22;31471;51.040;14.414;2023-03-01T04:59:10;-8.30;99.90
45761;DHT22;31471;51.040;14.414;2023-03-01T05:01:38;-8.10;99.90
45761;DHT22;31471;51.040;14.414;2023-03-01T05:04:03;-8.10;99.90
45761;DHT22;31471;51.040;14.414;2023-03-01T05:06:30;-8.00;99.90
45761;DHT22;31471;51.040;14.414;2023-03-01T05:08:56;-8.30;99.90
45761;DHT22;31471;51.040;14.414;2023-03-01T05:11:21;-8.50;99.90
45761;DHT22;31471;51.040;14.414;2023-03-01T05:13:47;-8.50;99.90
45761;DHT22;31471;51.040;14.414;2023-03-01T05:16:12;-8.50;99.90
45761;DHT22;31471;51.040;14.414;2023-03-01T05:18:38;-8.50;99.90
45761;DHT22;31471;51.040;14.414;2023-03-01T05:21:08;-8.30;99.90
45761;DHT22;31471;51.040;14.414;2023-03-01T05:23:34;-8.30;99.90
45761;DHT22;31471;51.040;14.414;2023-03-01T05:26:01;-8.50;99.90
45761;DHT22;31471;51.040;14.414;2023-03-01T05:28:29;-8.60;99.90
45761;DHT22;31471;51.040;14.414;2023-03-01T05:30:54;-8.60;99.90
45761;DHT22;31471;51.040;14.414;2023-03-01T05:33:20;-8.70;99.90
45761;DHT22;31471;51.040;14.414;2023-03-01T05:35:47;-8.50;99.90
45761;DHT22;31471;51.040;14.414;2023-03-01T05:38:14;-8.40;99.90
45761;DHT22;31471;51.040;14.414;2023-03-01T05:40:40;-8.50;99.90
45761;DHT22;31471;51.040;14.414;2023-03-01T05:43:06;-8.40;99.90
45761;DHT22;31471;51.040;14.414;2023-03-01T05:45:31;-8.30;99.90
45761;DHT22;31471;51.040;14.414;2023-03-01T05:47:58;-8.40;99.90
45761;DHT22;31471;51.040;14.414;2023-03-01T05:50:25;-8.40;99.90
45761;DHT22;31471;51.040;14.414;2023-03-01T05:52:52;-8.30;99.90
45761;DHT22;31471;51.040;14.414;2023-03-01T05:55:21;-8.50;99.90
45761;DHT22;31471;51.040;14.414;2023-03-01T05:57:47;-8.50;99.90
45761;DHT22;31471;51.040;14.414;2023-03-01T06:00:13;-8.70;99.90
45761;DHT22;31471;51.040;14.414;2023-03-01T06:02:39;-8.60;99.90
45761;DHT22;31471;51.040;14.414;2023-03-01T06:05:06;-8.60;99.90
45761;DHT22;31471;51.040;14.414;2023-03-01T06:07:31;-8.50;99.90
45761;DHT22;31471;51.040;14.414;2023-03-01T06:09:57;-8.50;99.90
45761;DHT22;31471;51.040;14.414;2023-03-01T06:12:22;-8.20;99.90
45761;DHT22;31471;51.040;14.414;2023-03-01T06:14:48;-8.20;99.90
45761;DHT22;31471;51.040;14.414;2023-03-01T06:17:13;-8.40;99.90
45761;DHT22;31471;51.040;14.414;2023-03-01T06:19:39;-8.50;99.90
45761;DHT22;31471;51.040;14.414;2023-03-01T06:22:04;-8.40;99.90
45761;DHT22;31471;51.040;14.414;2023-03-01T06:24:29;-8.50;99.90
45761;DHT22;31471;51.040;14.414;2023-03-01T06:26:55;-8.50;99.90
45761;DHT22;31471;51.040;14.414;2023-03-01T06:29:21;-8.50;99.90
45761;DHT22;31471;51.040;14.414;2023-03-01T06:31:48;-8.40;99.90
45761;DHT22;31471;51.040;14.414;2023-03-01T06:34:13;-8.20;99.90
45761;DHT22;31471;51.040;14.414;2023-03-01T06:36:39;-8.10;99.90
45761;DHT22;31471;51.040;14.414;2023-03-01T06:39:05;-7.90;99.90
45761;DHT22;31471;51.040;14.414;2023-03-01T06:41:30;-7.90;99.90
45761;DHT22;31471;51.040;14.414;2023-03-01T06:43:56;-7.90;99.90
45761;DHT22;31471;51.040;14.414;2023-03-01T06:46:21;-7.70;99.90
45761;DHT22;31471;51.040;14.414;2023-03-01T06:48:47;-7.60;99.90
45761;DHT22;31471;51.040;14.414;2023-03-01T06:51:12;-7.60;99.90
45761;DHT22;31471;51.040;14.414;2023-03-01T06:53:38;-7.70;99.90
45761;DHT22;31471;51.040;14.414;2023-03-01T06:56:03;-7.90;99.90
45761;DHT22;31471;51.040;14.414;2023-03-01T06:58:29;-8.10;99.90
45761;DHT22;31471;51.040;14.414;2023-03-01T07:00:54;-8.10;99.90
45761;DHT22;31471;51.040;14.414;2023-03-01T07:03:20;-8.00;99.90
45761;DHT22;31471;51.040;14.414;2023-03-01T07:05:48;-7.90;99.90
45761;DHT22;31471;51.040;14.414;2023-03-01T07:08:14;-7.80;99.90
45761;DHT22;31471;51.040;14.414;2023-03-01T07:10:39;-7.80;99.90
45761;DHT22;31471;51.040;14.414;2023-03-01T07:13:05;-7.50;99.90
45761;DHT22;31471;51.040;14.414;2023-03-01T07:15:32;-7.30;99.90
45761;DHT22;31471;51.040;14.414;2023-03-01T07:17:58;-7.20;99.90
45761;DHT22;31471;51.040;14.414;2023-03-01T07:20:23;-7.10;99.90
45761;DHT22;31471;51.040;14.414;2023-03-01T07:22:51;-6.90;99.90
45761;DHT22;31471;51.040;14.414;2023-03-01T07:25:16;-6.80;99.90
45761;DHT22;31471;51.040;14.414;2023-03-01T07:27:42;-6.90;99.90
45761;DHT22;31471;51.040;14.414;2023-03-01T07:30:08;-6.90;99.90
45761;DHT22;31471;51.040;14.414;2023-03-01T07:32:33;-6.90;99.90
45761;DHT22;31471;51.040;14.414;2023-03-01T07:34:59;-6.70;99.90
45761;DHT22;31471;51.040;14.414;2023-03-01T07:37:24;-6.80;99.90
45761;DHT22;31471;51.040;14.414;2023-03-01T07:39:50;-6.70;99.90
45761;DHT22;31471;51.040;14.414;2023-03-01T07:42:15;-6.50;99.90
45761;DHT22;31471;51.040;14.414;2023-03-01T07:44:41;-6.20;99.90
45761;DHT22;31471;51.040;14.414;2023-03-01T07:47:07;-5.80;99.90
45761;DHT22;31471;51.040;14.414;2023-03-01T07:49:32;-5.60;99.90
45761;DHT22;31471;51.040;14.414;2023-03-01T07:51:57;-5.30;99.90
45761;DHT22;31471;51.040;14.414;2023-03-01T07:54:23;-5.30;99.90
45761;DHT22;31471;51.040;14.414;2023-03-01T07:56:49;-5.10;99.90
45761;DHT22;31471;51.040;14.414;2023-03-01T07:59:14;-4.80;99.90
45761;DHT22;31471;51.040;14.414;2023-03-01T08:01:40;-4.60;99.90
45761;DHT22;31471;51.040;14.414;2023-03-01T08:04:06;-4.60;99.90
45761;DHT22;31471;51.040;14.414;2023-03-01T08:06:33;-4.70;99.90
45761;DHT22;31471;51.040;14.414;2023-03-01T08:08:59;-4.90;99.90
45761;DHT22;31471;51.040;14.414;2023-03-01T08:11:24;-4.90;99.90
45761;DHT22;31471;51.040;14.414;2023-03-01T08:13:50;-4.80;99.90
45761;DHT22;31471;51.040;14.414;2023-03-01T08:16:15;-4.60;99.90
45761;DHT22;31471;51.040;14.414;2023-03-01T08:18:41;-4.60;99.90
45761;DHT22;31471;51.040;14.414;2023-03-01T08:21:07;-4.70;99.90
45761;DHT22;31471;51.040;14.414;2023-03-01T08:23:33;-4.80;99.90
45761;DHT22;31471;51.040;14.414;2023-03-01T08:26:03;-4.70;99.90
45761;DHT22;31471;51.040;14.414;2023-03-01T08:28:28;-4.50;99.90
45761;DHT22;31471;51.040;14.414;2023-03-01T08:30:54;-4.40;99.90
45761;DHT22;31471;51.040;14.414;2023-03-01T08:33:19;-4.10;99.90
45761;DHT22;31471;51.040;14.414;2023-03-01T08:35:45;-3.80;99.90
45761;DHT22;31471;51.040;14.414;2023-03-01T08:38:10;-3.50;99.90
45761;DHT22;31471;51.040;14.414;2023-03-01T08:40:36;-3.20;99.90
45761;DHT22;31471;51.040;14.414;2023-03-01T08:43:01;-3.00;99.90
45761;DHT22;31471;51.040;14.414;2023-03-01T08:45:27;-2.80;99.90
45761;DHT22;31471;51.040;14.414;2023-03-01T08:47:52;-2.80;99.90
45761;DHT22;31471;51.040;14.414;2023-03-01T08:50:18;-2.80;99.90
45761;DHT22;31471;51.040;14.414;2023-03-01T08:52:44;-2.60;99.90
45761;DHT22;31471;51.040;14.414;2023-03-01T08:55:09;-2.30;99.90
45761;DHT22;31471;51.040;14.414;2023-03-01T08:57:34;-2.10;99.90
45761;DHT22;31471;51.040;14.414;2023-03-01T09:00:00;-1.80;99.90
45761;DHT22;31471;51.040;14.414;2023-03-01T09:02:26;-1.60;99.90
45761;DHT22;31471;51.040;14.414;2023-03-01T09:04:51;-1.40;99.90
45761;DHT22;31471;51.040;14.414;2023-03-01T09:07:16;-1.30;99.90
45761;DHT22;31471;51.040;14.414;2023-03-01T09:09:42;-1.10;99.90
45761;DHT22;31471;51.040;14.414;2023-03-01T09:12:07;-0.90;99.90
45761;DHT22;31471;51.040;14.414;2023-03-01T09:14:33;-0.90;99.90
45761;DHT22;31471;51.040;14.414;2023-03-01T09:16:58;-0.80;99.90
45761;DHT22;31471;51.040;14.414;2023-03-01T09:19:28;-0.60;99.90
45761;DHT22;31471;51.040;14.414;2023-03-01T09:21:53;-0.40;99.90
45761;DHT22;31471;51.040;14.414;2023-03-01T09:24:21;-0.30;99.90
45761;DHT22;31471;51.040;14.414;2023-03-01T09:26:47;-0.30;99.90
45761;DHT22;31471;51.040;14.414;2023-03-01T09:29:12;-0.30;99.90
45761;DHT22;31471;51.040;14.414;2023-03-01T09:31:38;-0.40;99.90
45761;DHT22;31471;51.040;14.414;2023-03-01T09:34:04;-0.50;99.90
45761;DHT22;31471;51.040;14.414;2023-03-01T09:36:30;-0.50;99.90
45761;DHT22;31471;51.040;14.414;2023-03-01T09:38:55;-0.50;99.90
45761;DHT22;31471;51.040;14.414;2023-03-01T09:43:55;-0.40;99.90
45761;DHT22;31471;51.040;14.414;2023-03-01T09:46:23;-0.20;99.90
45761;DHT22;31471;51.040;14.414;2023-03-01T09:48:50;0.00;99.90
45761;DHT22;31471;51.040;14.414;2023-03-01T09:51:18;0.00;99.90
45761;DHT22;31471;51.040;14.414;2023-03-01T09:53:44;0.10;99.90
45761;DHT22;31471;51.040;14.414;2023-03-01T09:56:16;0.30;99.90
45761;DHT22;31471;51.040;14.414;2023-03-01T09:58:54;0.20;99.90
45761;DHT22;31471;51.040;14.414;2023-03-01T10:01:29;0.10;99.90
45761;DHT22;31471;51.040;14.414;2023-03-01T10:06:26;0.10;99.90
45761;DHT22;31471;51.040;14.414;2023-03-01T10:08:58;0.20;99.90
45761;DHT22;31471;51.040;14.414;2023-03-01T10:11:27;0.30;99.90
45761;DHT22;31471;51.040;14.414;2023-03-01T10:16:40;0.50;99.90
45761;DHT22;31471;51.040;14.414;2023-03-01T10:19:08;0.70;99.90
45761;DHT22;31471;51.040;14.414;2023-03-01T10:21:36;0.80;99.90
45761;DHT22;31471;51.040;14.414;2023-03-01T10:24:09;1.00;99.90
45761;DHT22;31471;51.040;14.414;2023-03-01T10:26:41;1.10;99.90
45761;DHT22;31471;51.040;14.414;2023-03-01T10:29:10;1.10;99.90
45761;DHT22;31471;51.040;14.414;2023-03-01T10:31:56;1.20;99.90
45761;DHT22;31471;51.040;14.414;2023-03-01T10:34:31;1.40;99.90
45761;DHT22;31471;51.040;14.414;2023-03-01T10:36:58;1.30;99.90
45761;DHT22;31471;51.040;14.414;2023-03-01T10:39:26;1.30;99.90
45761;DHT22;31471;51.040;14.414;2023-03-01T10:41:56;1.30;99.90
45761;DHT22;31471;51.040;14.414;2023-03-01T10:44:35;1.40;99.90
45761;DHT22;31471;51.040;14.414;2023-03-01T10:47:01;1.30;99.90
45761;DHT22;31471;51.040;14.414;2023-03-01T10:49:26;1.20;99.90
45761;DHT22;31471;51.040;14.414;2023-03-01T10:51:53;1.10;99.90
45761;DHT22;31471;51.040;14.414;2023-03-01T10:54:20;1.10;99.90
45761;DHT22;31471;51.040;14.414;2023-03-01T10:57:02;1.10;99.90
45761;DHT22;31471;51.040;14.414;2023-03-01T10:59:29;1.10;99.90
45761;DHT22;31471;51.040;14.414;2023-03-01T11:02:03;1.20;99.90
45761;DHT22;31471;51.040;14.414;2023-03-01T11:04:29;1.30;99.90
45761;DHT22;31471;51.040;14.414;2023-03-01T11:06:58;1.50;99.90
45761;DHT22;31471;51.040;14.414;2023-03-01T11:09:24;1.70;99.90
45761;DHT22;31471;51.040;14.414;2023-03-01T11:11:53;1.90;99.90
45761;DHT22;31471;51.040;14.414;2023-03-01T11:14:23;1.90;99.90
45761;DHT22;31471;51.040;14.414;2023-03-01T11:16:58;2.10;99.90
45761;DHT22;31471;51.040;14.414;2023-03-01T11:19:24;2.20;99.90
45761;DHT22;31471;51.040;14.414;2023-03-01T11:24:40;2.40;99.90
45761;DHT22;31471;51.040;14.414;2023-03-01T11:27:12;2.40;99.90
45761;DHT22;31471;51.040;14.414;2023-03-01T11:29:40;2.40;99.90
45761;DHT22;31471;51.040;14.414;2023-03-01T11:32:08;2.50;99.90
45761;DHT22;31471;51.040;14.414;2023-03-01T11:34:40;2.50;99.90
45761;DHT22;31471;51.040;14.414;2023-03-01T11:37:44;2.40;99.90
45761;DHT22;31471;51.040;14.414;2023-03-01T11:40:16;2.50;99.90
45761;DHT22;31471;51.040;14.414;2023-03-01T11:43:05;2.60;99.90
45761;DHT22;31471;51.040;14.414;2023-03-01T11:45:38;2.70;99.90
45761;DHT22;31471;51.040;14.414;2023-03-01T11:48:30;2.80;99.90
45761;DHT22;31471;51.040;14.414;2023-03-01T11:50:51;2.90;99.90
45761;DHT22;31471;51.040;14.414;2023-03-01T11:53:30;2.90;99.90
45761;DHT22;31471;51.040;14.414;2023-03-01T11:55:59;2.90;99.90
45761;DHT22;31471;51.040;14.414;2023-03-01T12:11:39;3.10;99.90
45761;DHT22;31471;51.040;14.414;2023-03-01T12:21:42;3.10;99.90
45761;DHT22;31471;51.040;14.414;2023-03-01T12:29:46;3.30;99.90
45761;DHT22;31471;51.040;14.414;2023-03-01T12:32:36;3.40;99.90
45761;DHT22;31471;51.040;14.414;2023-03-01T12:35:07;3.40;99.90
45761;DHT22;31471;51.040;14.414;2023-03-01T12:42:41;3.60;99.90
45761;DHT22;31471;51.040;14.414;2023-03-01T12:48:20;3.60;99.90
45761;DHT22;31471;51.040;14.414;2023-03-01T12:50:47;3.70;99.90
45761;DHT22;31471;51.040;14.414;2023-03-01T12:53:24;3.60;98.70
45761;DHT22;31471;51.040;14.414;2023-03-01T12:55:52;3.70;99.90
45761;DHT22;31471;51.040;14.414;2023-03-01T13:03:26;3.90;99.90
45761;DHT22;31471;51.040;14.414;2023-03-01T13:11:03;3.90;98.90
45761;DHT22;31471;51.040;14.414;2023-03-01T13:13:30;3.90;98.60
45761;DHT22;31471;51.040;14.414;2023-03-01T13:15:56;3.90;97.10
45761;DHT22;31471;51.040;14.414;2023-03-01T13:20:56;4.00;97.20
45761;DHT22;31471;51.040;14.414;2023-03-01T13:26:00;4.00;98.70
45761;DHT22;31471;51.040;14.414;2023-03-01T13:31:11;4.10;97.30
45761;DHT22;31471;51.040;14.414;2023-03-01T13:33:55;4.10;98.50
45761;DHT22;31471;51.040;14.414;2023-03-01T13:39:00;4.00;96.60
45761;DHT22;31471;51.040;14.414;2023-03-01T13:44:20;4.10;97.00
45761;DHT22;31471;51.040;14.414;2023-03-01T13:46:46;4.00;95.80
45761;DHT22;31471;51.040;14.414;2023-03-01T13:49:13;4.00;96.90
45761;DHT22;31471;51.040;14.414;2023-03-01T13:51:41;4.10;98.20
45761;DHT22;31471;51.040;14.414;2023-03-01T13:54:09;4.10;97.20
45761;DHT22;31471;51.040;14.414;2023-03-01T13:56:36;4.00;96.30
45761;DHT22;31471;51.040;14.414;2023-03-01T13:59:03;4.10;96.40
45761;DHT22;31471;51.040;14.414;2023-03-01T14:01:34;4.00;95.20
45761;DHT22;31471;51.040;14.414;2023-03-01T14:04:01;3.90;95.60
45761;DHT22;31471;51.040;14.414;2023-03-01T14:06:30;3.90;96.70
45761;DHT22;31471;51.040;14.414;2023-03-01T14:09:10;3.90;97.80
45761;DHT22;31471;51.040;14.414;2023-03-01T14:14:36;4.00;95.70
45761;DHT22;31471;51.040;14.414;2023-03-01T14:17:14;3.90;94.40
45761;DHT22;31471;51.040;14.414;2023-03-01T14:19:42;3.90;94.50
45761;DHT22;31471;51.040;14.414;2023-03-01T14:24:37;4.00;96.60
45761;DHT22;31471;51.040;14.414;2023-03-01T14:27:03;4.00;96.10
45761;DHT22;31471;51.040;14.414;2023-03-01T14:29:34;4.00;93.90
45761;DHT22;31471;51.040;14.414;2023-03-01T14:32:11;4.10;95.80
45761;DHT22;31471;51.040;14.414;2023-03-01T14:34:42;4.00;93.90
45761;DHT22;31471;51.040;14.414;2023-03-01T14:37:21;4.00;94.90
45761;DHT22;31471;51.040;14.414;2023-03-01T14:39:47;4.00;95.10
45761;DHT22;31471;51.040;14.414;2023-03-01T14:42:12;4.00;95.30
45761;DHT22;31471;51.040;14.414;2023-03-01T14:44:40;4.10;95.60
45761;DHT22;31471;51.040;14.414;2023-03-01T14:47:06;4.10;95.40
45761;DHT22;31471;51.040;14.414;2023-03-01T14:49:32;4.00;95.10
45761;DHT22;31471;51.040;14.414;2023-03-01T14:52:02;4.00;94.40
45761;DHT22;31471;51.040;14.414;2023-03-01T14:54:41;3.90;94.60
45761;DHT22;31471;51.040;14.414;2023-03-01T14:57:15;3.90;94.60
45761;DHT22;31471;51.040;14.414;2023-03-01T14:59:41;3.90;94.40
45761;DHT22;31471;51.040;14.414;2023-03-01T15:02:15;3.90;95.00
45761;DHT22;31471;51.040;14.414;2023-03-01T15:04:43;3.90;93.60
45761;DHT22;31471;51.040;14.414;2023-03-01T15:07:11;3.80;94.30
45761;DHT22;31471;51.040;14.414;2023-03-01T15:09:40;3.80;93.90
45761;DHT22;31471;51.040;14.414;2023-03-01T15:14:50;3.70;94.10
45761;DHT22;31471;51.040;14.414;2023-03-01T15:17:34;3.70;94.70
45761;DHT22;31471;51.040;14.414;2023-03-01T15:20:00;3.70;93.60
45761;DHT22;31471;51.040;14.414;2023-03-01T15:22:26;3.60;94.70
45761;DHT22;31471;51.040;14.414;2023-03-01T15:24:52;3.70;93.00
45761;DHT22;31471;51.040;14.414;2023-03-01T15:27:19;3.60;92.80
45761;DHT22;31471;51.040;14.414;2023-03-01T15:29:49;3.60;92.40
45761;DHT22;31471;51.040;14.414;2023-03-01T15:32:34;3.60;91.00
45761;DHT22;31471;51.040;14.414;2023-03-01T15:35:32;3.60;92.00
45761;DHT22;31471;51.040;14.414;2023-03-01T15:37:48;3.50;91.20
45761;DHT22;31471;51.040;14.414;2023-03-01T15:40:24;3.50;91.70
45761;DHT22;31471;51.040;14.414;2023-03-01T15:42:59;3.50;92.00
45761;DHT22;31471;51.040;14.414;2023-03-01T15:45:26;3.40;91.00
45761;DHT22;31471;51.040;14.414;2023-03-01T15:47:56;3.40;91.00
45761;DHT22;31471;51.040;14.414;2023-03-01T15:50:28;3.30;91.70
45761;DHT22;31471;51.040;14.414;2023-03-01T15:52:55;3.30;92.00
45761;DHT22;31471;51.040;14.414;2023-03-01T15:55:25;3.20;90.80
45761;DHT22;31471;51.040;14.414;2023-03-01T15:57:58;3.30;91.10
45761;DHT22;31471;51.040;14.414;2023-03-01T16:00:25;3.20;90.50
45761;DHT22;31471;51.040;14.414;2023-03-01T16:02:51;3.10;90.50
45761;DHT22;31471;51.040;14.414;2023-03-01T16:05:24;3.00;90.90
45761;DHT22;31471;51.040;14.414;2023-03-01T16:07:50;3.00;91.40
45761;DHT22;31471;51.040;14.414;2023-03-01T16:10:16;2.90;92.90
45761;DHT22;31471;51.040;14.414;2023-03-01T16:12:42;2.80;93.10
45761;DHT22;31471;51.040;14.414;2023-03-01T16:15:13;2.60;94.90
45761;DHT22;31471;51.040;14.414;2023-03-01T16:17:41;2.50;95.30
45761;DHT22;31471;51.040;14.414;2023-03-01T16:20:07;2.30;97.00
45761;DHT22;31471;51.040;14.414;2023-03-01T16:22:32;2.30;99.20
45761;DHT22;31471;51.040;14.414;2023-03-01T16:24:58;2.20;99.90
45761;DHT22;31471;51.040;14.414;2023-03-01T16:27:23;2.20;99.90
45761;DHT22;31471;51.040;14.414;2023-03-01T16:29:52;2.00;99.90
45761;DHT22;31471;51.040;14.414;2023-03-01T16:32:19;1.90;99.90
45761;DHT22;31471;51.040;14.414;2023-03-01T16:34:44;1.90;99.90
45761;DHT22;31471;51.040;14.414;2023-03-01T16:37:12;1.70;99.90
45761;DHT22;31471;51.040;14.414;2023-03-01T16:39:38;1.70;99.90
45761;DHT22;31471;51.040;14.414;2023-03-01T16:42:04;1.60;99.90
45761;DHT22;31471;51.040;14.414;2023-03-01T16:44:29;1.50;99.90
45761;DHT22;31471;51.040;14.414;2023-03-01T16:46:55;1.50;99.90